Latest Weather Observations for Sydney Airport

IDN60801

Issued at 10:05 pm EST Wednesday 20 August 2014 (issued every 30 minutes, with the page automatically refreshed every 10 minutes)

About weather observations | Map of weather stations | Latest weather observations for NSW | Other Formats
Station Details ID: 066037 Name: SYDNEY AIRPORT AMO Lat: -33.95 Lon: 151.17 Height: 6.0 m
Data from the previous 72 hours. | See also: Recent months at Sydney Airport
Date/Time
EST
Temp
°C
App
Temp
°C
Dew
Point
Rel
Hum
%
Delta-T
°C
Wind Press
QNH
hPa
Press
MSL
hPa
Rain
since 9 am
mm
Dir
 
Spd
km/h
Gust
km/h
Spd
kts
Gust
kts
20/10:00pm 13.1 8.6 8.5 73 2.3 SSW 22 30 12 16 1026.9 1026.9 0.0
20/09:30pm 13.6 9.1 8.4 71 2.6 SSW 22 28 12 15 1026.9 - 0.0
20/09:00pm 13.8 8.8 8.1 68 2.8 SSW 24 32 13 17 1026.9 1026.9 0.0
20/08:30pm 14.1 9.2 8.3 68 2.9 SSW 24 30 13 16 1026.7 - 0.0
20/08:00pm 13.9 8.3 8.9 72 2.5 S 28 33 15 18 1026.5 1026.5 0.0
20/07:30pm 13.8 9.3 8.4 70 2.7 SSW 22 30 12 16 1026.4 - 0.0
20/07:00pm 14.0 9.4 8.1 67 2.9 S 22 30 12 16 1026.1 1026.1 0.0
20/06:30pm 14.0 9.1 8.6 70 2.7 S 24 32 13 17 1025.9 - 0.0
20/06:00pm 14.3 8.5 7.8 65 3.2 S 28 33 15 18 1025.6 1025.6 0.0
20/05:30pm 14.4 8.7 8.2 66 3.1 S 28 35 15 19 1025.3 - 0.0
20/05:00pm 14.5 8.7 8.1 65 3.2 S 28 35 15 19 1025.1 1025.1 0.0
20/04:30pm 14.5 8.7 7.8 64 3.3 S 28 35 15 19 1024.8 - 0.0
20/04:00pm 14.7 7.9 7.6 62 3.5 S 33 41 18 22 1024.7 1024.7 0.0
20/03:30pm 14.9 8.3 7.6 61 3.6 S 32 39 17 21 1024.5 - 0.0
20/03:00pm 14.9 7.9 6.9 58 3.9 S 33 41 18 22 1024.3 1024.3 0.0
20/02:30pm 14.7 7.9 6.9 59 3.8 S 32 43 17 23 1024.2 - 0.0
20/02:00pm 14.8 8.2 6.0 55 4.2 S 30 37 16 20 1024.2 1024.2 0.0
20/01:30pm 14.7 7.3 6.9 59 3.8 S 35 50 19 27 1024.2 - 0.0
20/01:00pm 14.3 7.3 6.9 61 3.6 S 33 41 18 22 1024.4 1024.4 0.0
20/12:30pm 13.9 6.8 6.3 60 3.6 SSW 33 39 18 21 1024.7 - 0.0
20/12:00pm 13.7 6.9 6.8 63 3.3 S 32 39 17 21 1025.0 1025.0 0.0
20/11:30am 14.1 8.1 7.1 62 3.4 SSW 28 35 15 19 1025.2 - 0.0
20/11:00am 13.1 4.6 6.8 65 3.0 S 41 52 22 28 1025.2 1025.2 0.0
20/10:52am 13.5 6.3 6.1 61 3.5 S 33 52 18 28 1025.2 - 0.0
20/10:30am 13.4 6.5 6.5 63 3.3 SSW 32 41 17 22 1025.1 - 0.0
20/10:00am 13.7 6.6 6.6 62 3.4 SSW 33 39 18 21 1025.0 1025.0 0.0
20/09:30am 13.3 6.6 7.3 67 2.9 SSW 32 41 17 22 1024.9 - 0.0
20/09:14am 13.2 6.4 7.0 66 3.0 SW 32 46 17 25 1024.8 - 0.0
20/09:00am 12.9 8.4 6.8 66 2.9 WSW 20 28 11 15 1024.7 1024.7 9.6
20/08:30am 12.5 7.1 6.4 66 2.9 WSW 24 32 13 17 1024.6 - 9.6
20/08:00am 12.0 7.6 6.5 69 2.6 W 19 24 10 13 1024.4 1024.4 9.6
20/07:30am 10.4 6.1 6.8 78 1.7 W 19 24 10 13 1024.1 - 9.6
20/07:00am 10.3 5.6 6.2 76 1.9 W 20 35 11 19 1023.8 1023.8 9.6
20/06:30am 10.7 5.5 5.4 70 2.4 W 22 28 12 15 1023.4 - 9.6
20/06:00am 10.7 5.1 5.4 70 2.4 W 24 30 13 16 1023.0 1023.0 9.6
20/05:30am 10.5 4.9 5.4 70 2.3 WSW 24 28 13 15 1022.6 - 9.6
20/05:00am 10.4 4.5 5.6 72 2.2 W 26 30 14 16 1022.4 1022.4 9.6
20/04:30am 10.1 4.1 5.2 71 2.2 W 26 30 14 16 1022.2 - 9.6
20/04:00am 10.4 4.4 5.1 69 2.4 WSW 26 30 14 16 1021.9 1021.9 9.6
20/03:30am 11.3 5.7 5.2 66 2.8 W 24 30 13 16 1021.6 - 9.6
20/03:00am 11.3 6.5 5.7 68 2.6 WSW 20 26 11 14 1021.5 1021.5 9.6
20/02:30am 10.0 4.4 5.4 73 2.1 WSW 24 32 13 17 1021.4 - 9.6
20/02:00am 11.9 6.3 5.4 64 3.0 WSW 24 30 13 16 1021.6 1021.6 9.6
20/01:30am 12.2 5.2 5.8 65 3.0 SW 32 37 17 20 1021.5 - 9.6
20/01:00am 12.6 5.6 6.0 64 3.1 SW 32 41 17 22 1021.5 1021.5 9.6
20/12:30am 12.7 4.5 6.4 65 3.0 SSW 39 50 21 27 1021.2 - 9.6
20/12:00am 13.0 5.8 5.7 61 3.4 SW 33 41 18 22 1021.3 1021.3 9.6
 
Date/Time
EST
Temp
°C
App
Temp
°C
Dew
Point
Rel
Hum
%
Delta-T
°C
Wind Press
QNH
hPa
Press
MSL
hPa
Rain
since 9 am
mm
Dir
 
Spd
km/h
Gust
km/h
Spd
kts
Gust
kts
19/11:30pm 13.3 5.7 5.9 61 3.5 SW 35 41 19 22 1021.2 - 9.6
19/11:00pm 13.6 5.1 7.0 64 3.2 SSW 41 56 22 30 1021.1 1021.1 9.6
19/10:30pm 13.7 5.6 6.9 63 3.3 SSW 39 50 21 27 1020.7 - 9.6
19/10:00pm 13.7 5.3 7.3 65 3.1 SSW 41 57 22 31 1020.9 1020.9 9.6
19/09:30pm 13.8 5.8 7.5 66 3.1 SSW 39 50 21 27 1020.7 - 9.6
19/09:10pm 13.9 6.3 7.6 66 3.1 SSW 37 56 20 30 1020.7 - 9.6
19/09:00pm 14.0 6.7 7.2 63 3.3 SSW 35 48 19 26 1020.7 1020.7 9.6
19/08:37pm 14.0 6.9 7.9 66 3.0 SSW 35 54 19 29 1020.7 - 9.6
19/08:30pm 14.0 6.9 8.2 68 2.9 SSW 35 48 19 26 1020.6 - 9.6
19/08:00pm 14.3 4.9 7.1 62 3.5 SSW 46 61 25 33 1020.3 1020.3 9.6
19/07:33pm 14.5 4.8 7.6 63 3.4 SSW 48 67 26 36 1020.0 - 9.4
19/07:30pm 14.5 5.3 7.8 64 3.3 SSW 46 59 25 32 1020.0 - 9.4
19/07:09pm 13.9 6.3 8.9 72 2.5 SSW 39 57 21 31 1019.8 - 9.4
19/07:00pm 13.7 6.2 9.4 75 2.2 SSW 39 56 21 30 1019.7 1019.7 9.4
19/06:30pm 12.8 5.3 10.9 88 1.0 SSW 41 54 22 29 1019.3 - 9.4
19/06:12pm 12.5 4.7 11.2 92 0.7 S 43 63 23 34 1019.2 - 9.2
19/06:07pm 12.8 5.6 10.7 87 1.1 SSW 39 54 21 29 1019.0 - 8.8
19/06:00pm 12.9 5.1 11.0 88 1.0 SSW 43 56 23 30 1018.8 1018.8 8.8
19/05:48pm 12.5 4.8 11.4 93 0.6 SSW 43 59 23 32 1018.7 - 8.8
19/05:30pm 12.5 6.7 11.4 93 0.6 S 33 41 18 22 1018.4 - 8.2
19/05:16pm 13.1 6.0 11.0 87 1.1 SSW 39 57 21 31 1018.3 - 7.2
19/05:00pm 13.0 6.0 11.1 88 1.0 SSW 39 46 21 25 1017.9 1017.9 7.2
19/04:50pm 12.9 5.1 11.2 89 0.9 SSW 43 61 23 33 1017.9 - 7.2
19/04:49pm 12.9 4.9 11.2 89 0.9 SSW 44 61 24 33 1017.8 - 7.2
19/04:30pm 12.8 4.9 11.5 92 0.7 SSW 44 56 24 30 1017.6 - 6.8
19/04:06pm 13.2 6.6 11.5 89 0.9 SSW 37 48 20 26 1017.4 - 5.0
19/04:00pm 13.2 6.0 10.7 85 1.3 SSW 39 54 21 29 1017.2 1017.2 5.0
19/03:36pm 14.3 5.9 11.1 81 1.7 SSW 46 70 25 38 1016.8 - 4.4
19/03:30pm 14.1 6.7 11.1 82 1.6 SSW 41 54 22 29 1016.7 - 4.4
19/03:00pm 14.5 7.0 10.9 79 1.9 SSW 41 56 22 30 1016.7 1016.7 4.4
19/02:30pm 14.9 5.2 10.5 75 2.3 S 52 61 28 33 1016.2 - 4.4
19/02:09pm 13.7 8.5 11.6 87 1.1 SSW 30 48 16 26 1016.2 - 4.2
19/02:00pm 13.6 7.9 11.1 85 1.3 SSW 32 39 17 21 1016.0 1016.0 4.2
19/01:30pm 13.8 5.7 10.9 83 1.5 SSW 44 57 24 31 1015.8 - 4.0
19/01:00pm 15.3 6.5 10.8 74 2.4 S 48 61 26 33 1015.5 1015.5 4.0
19/12:46pm 14.7 8.8 11.3 80 1.8 SSW 33 52 18 28 1015.6 - 4.0
19/12:30pm 14.2 6.6 10.6 79 1.9 SSW 41 54 22 29 1015.6 - 4.0
19/12:17pm 14.1 8.6 11.7 85 1.3 S 32 56 17 30 1015.6 - 3.8
19/12:07pm 13.6 6.3 11.5 87 1.1 S 41 59 22 32 1015.7 - 2.4
19/12:00pm 13.2 5.0 11.7 91 0.8 S 46 59 25 32 1015.6 1015.6 1.4
19/11:54am 14.5 7.1 11.1 80 1.8 SSW 41 59 22 32 1015.6 - 0.0
19/11:52am 14.9 7.4 10.9 77 2.1 SSW 41 56 22 30 1015.6 - 0.0
19/11:30am 15.9 9.2 11.0 72 2.6 SSW 37 50 20 27 1015.7 - 0.0
19/11:00am 15.3 6.7 10.3 72 2.6 SSW 46 56 25 30 1015.7 1015.7 0.0
19/10:30am 15.4 8.7 11.1 75 2.3 SSW 37 48 20 26 1015.6 - 0.0
19/10:00am 14.8 7.8 11.2 79 1.9 SSW 39 50 21 27 1015.5 1015.5 0.0
19/09:30am 14.4 8.0 10.8 79 1.9 SW 35 41 19 22 1015.4 - 0.0
19/09:00am 15.5 5.2 9.7 68 3.0 S 54 69 29 37 1015.1 1015.1 35.0
19/08:30am 15.1 5.2 9.7 70 2.8 S 52 63 28 34 1014.6 - 35.0
19/08:01am 14.7 5.9 10.9 78 2.0 S 48 69 26 37 1014.4 - 35.0
19/08:00am 14.7 5.8 10.7 77 2.1 S 48 61 26 33 1014.4 1014.4 35.0
19/07:40am 15.2 6.2 10.4 73 2.5 S 48 67 26 36 1014.0 - 35.0
19/07:30am 15.0 6.1 10.6 75 2.3 S 48 61 26 33 1013.9 - 35.0
19/07:08am 14.5 5.7 10.9 79 1.9 S 48 67 26 36 1013.6 - 35.0
19/07:00am 14.3 4.8 11.1 81 1.7 S 52 69 28 37 1013.4 1013.4 35.0
19/06:40am 12.8 3.6 12.2 96 0.3 SSE 52 70 28 38 1013.2 - 34.8
19/06:36am 13.7 4.8 11.8 88 1.0 S 50 70 27 38 1013.0 - 33.8
19/06:30am 14.1 6.4 12.1 88 1.1 S 44 61 24 33 1013.1 - 33.8
19/06:28am 14.0 6.5 12.1 88 1.0 S 43 61 23 33 1013.0 - 33.8
19/06:00am 13.1 3.5 12.2 94 0.5 S 54 72 29 39 1013.0 1013.0 33.6
19/05:30am 14.0 4.2 11.4 84 1.4 S 54 72 29 39 1012.5 - 31.8
19/05:14am 13.9 5.3 11.7 86 1.2 S 48 67 26 36 1012.2 - 31.8
19/05:00am 13.9 3.9 11.9 88 1.1 S 56 69 30 37 1012.0 1012.0 31.8
19/04:30am 12.8 3.5 11.9 94 0.5 S 52 65 28 35 1011.7 - 31.2
19/04:11am 14.4 5.6 12.2 87 1.2 S 50 69 27 37 1011.3 - 31.0
19/04:00am 13.7 5.3 12.2 91 0.8 S 48 63 26 34 1011.1 1011.1 31.0
19/03:30am 13.3 6.8 12.9 97 0.2 S 39 52 21 28 1011.2 - 29.8
19/03:26am 13.2 6.4 13.0 99 0.1 S 41 52 22 28 1011.2 - 29.6
19/03:00am 13.4 6.0 13.2 99 0.1 S 44 59 24 32 1011.1 1011.1 28.2
19/02:54am 13.4 6.9 13.0 97 0.2 S 39 59 21 32 1010.9 - 27.2
19/02:30am 14.2 7.5 12.4 89 1.0 SSW 39 52 21 28 1010.5 - 25.2
19/02:00am 14.4 7.0 12.6 89 1.0 S 43 59 23 32 1010.4 1010.4 25.2
19/01:30am 14.1 7.3 13.2 94 0.5 S 41 59 22 32 1010.4 - 24.6
19/01:00am 14.4 7.1 13.3 93 0.6 S 44 57 24 31 1010.0 1010.0 24.2
19/12:30am 14.9 7.6 12.7 87 1.2 S 43 54 23 29 1009.8 - 23.6
19/12:01am 14.8 7.6 13.0 89 1.0 S 43 61 23 33 1009.5 - 23.0
19/12:00am 14.6 7.2 13.2 91 0.8 S 44 61 24 33 1009.4 1009.4 23.0
 
Date/Time
EST
Temp
°C
App
Temp
°C
Dew
Point
Rel
Hum
%
Delta-T
°C
Wind Press
QNH
hPa
Press
MSL
hPa
Rain
since 9 am
mm
Dir
 
Spd
km/h
Gust
km/h
Spd
kts
Gust
kts
18/11:30pm 14.7 7.6 13.4 92 0.7 S 43 56 23 30 1009.3 - 22.8
18/11:15pm 14.2 9.0 13.5 96 0.4 S 33 54 18 29 1009.4 - 22.8
18/11:00pm 13.5 6.7 13.1 97 0.2 S 41 54 22 29 1009.6 1009.6 20.4
18/10:30pm 14.7 7.6 13.4 92 0.7 S 43 54 23 29 1009.2 - 15.2
18/10:00pm 14.6 8.2 13.3 92 0.7 S 39 54 21 29 1008.9 1008.9 14.2
18/09:45pm 15.0 8.3 13.4 90 0.9 S 41 59 22 32 1008.7 - 13.8
18/09:30pm 14.9 8.2 13.5 91 0.8 S 41 52 22 28 1008.5 - 13.8
18/09:00pm 14.5 6.9 13.6 94 0.5 S 46 56 25 30 1008.2 1008.2 13.8
18/08:30pm 14.5 7.5 13.6 94 0.5 S 43 56 23 30 1008.0 - 13.2
18/08:00pm 14.6 7.8 13.2 91 0.8 SSW 41 56 22 30 1007.6 1007.6 13.0
18/07:30pm 13.9 6.7 13.0 94 0.5 SSW 43 56 23 30 1007.4 - 12.8
18/07:00pm 13.7 6.3 12.4 92 0.7 SW 43 57 23 31 1007.2 1007.2 12.8
18/06:45pm 13.6 6.5 12.3 92 0.7 SW 41 54 22 29 1007.0 - 12.6
18/06:30pm 13.3 5.6 12.0 92 0.7 SW 44 56 24 30 1006.9 - 12.6
18/06:00pm 13.4 5.1 11.5 88 1.0 SW 46 61 25 33 1006.5 1006.5 10.4
18/05:30pm 13.1 4.9 11.8 92 0.7 SW 46 56 25 30 1006.2 - 10.2
18/05:00pm 13.4 3.7 11.7 89 0.9 SW 54 69 29 37 1005.7 1005.7 9.8
18/04:52pm 13.4 4.4 11.7 89 0.9 SW 50 69 27 37 1005.6 - 9.8
18/04:42pm 13.4 4.8 11.7 89 0.9 SW 48 63 26 34 1005.4 - 9.8
18/04:30pm 13.2 5.6 11.7 91 0.8 SW 43 54 23 29 1005.4 - 9.8
18/04:00pm 13.3 4.3 11.6 89 0.9 SW 50 65 27 35 1005.2 1005.2 9.6
18/03:42pm 13.2 3.5 11.7 91 0.8 SSW 54 67 29 36 1005.0 - 9.6
18/03:30pm 13.0 3.0 12.1 94 0.5 SSW 56 67 30 36 1005.0 - 9.6
18/03:00pm 13.1 4.0 12.5 96 0.3 SSW 52 72 28 39 1004.9 1004.9 9.2
18/02:30pm 13.2 4.1 12.5 95 0.4 SSW 52 70 28 38 1004.8 - 9.0
18/02:10pm 13.5 4.8 12.6 94 0.5 S 50 69 27 37 1004.8 - 8.8
18/02:00pm 13.6 3.7 12.3 92 0.7 S 56 72 30 39 1004.5 1004.5 8.4
18/01:35pm 13.9 4.7 12.1 89 1.0 S 52 70 28 38 1004.6 - 7.8
18/01:30pm 14.1 5.7 12.3 89 1.0 S 48 61 26 33 1004.5 - 7.6
18/01:25pm 14.0 6.0 12.5 91 0.8 S 46 69 25 37 1004.5 - 7.6
18/01:00pm 14.0 4.8 12.2 89 1.0 S 52 74 28 40 1004.5 1004.5 7.6
18/12:30pm 13.6 4.0 12.1 91 0.8 S 54 72 29 39 1004.5 - 7.4
18/12:00pm 13.7 3.6 12.4 92 0.7 S 57 72 31 39 1004.4 1004.4 6.8
18/11:30am 13.5 3.1 12.6 94 0.5 S 59 78 32 42 1004.4 - 6.0
18/11:21am 13.7 3.4 12.8 94 0.5 S 59 72 32 39 1004.4 - 5.8
18/11:00am 13.8 3.4 12.7 93 0.6 S 59 80 32 43 1004.3 1004.3 5.0
18/10:39am 13.6 3.7 12.9 95 0.4 S 57 76 31 41 1004.1 - 4.4
18/10:30am 13.5 2.4 12.8 95 0.4 S 63 76 34 41 1003.9 - 4.2
18/10:12am 13.8 4.2 13.4 97 0.2 SSE 56 76 30 41 1004.0 - 3.4
18/10:00am 13.8 4.8 12.9 94 0.5 SSE 52 70 28 38 1003.5 1003.5 1.2
18/09:36am 14.1 2.9 13.6 97 0.3 SSE 65 87 35 47 1002.5 - 0.6
18/09:30am 14.0 1.7 13.3 96 0.4 S 70 89 38 48 1002.1 - 0.6
18/09:24am 13.9 1.9 13.4 97 0.3 S 69 89 37 48 1002.3 - 0.6
18/09:00am 13.7 2.8 13.5 99 0.1 S 63 85 34 46 1001.9 1001.9 35.6
18/08:30am 13.8 3.4 13.6 99 0.1 S 61 83 33 45 1001.8 - 32.4
18/08:15am 13.8 4.9 13.1 96 0.4 S 52 72 28 39 1002.1 - 30.0
18/08:10am 12.5 4.2 11.4 93 0.6 S 46 57 25 31 1002.7 - 29.2
18/08:00am 11.9 6.0 11.3 96 0.3 WSW 33 59 18 32 1002.9 1002.9 26.0
18/07:55am 11.9 7.0 11.3 96 0.3 SSW 28 50 15 27 1003.0 - 23.2
18/07:52am 12.1 7.3 11.5 96 0.3 WNW 28 41 15 22 1002.9 - 21.4
18/07:30am 12.1 9.2 11.1 94 0.5 WNW 17 24 9 13 1003.3 - 15.6
18/07:00am 12.1 10.8 11.3 95 0.4 WNW 9 17 5 9 1003.2 1003.2 12.6
18/06:50am 11.8 10.4 10.8 94 0.5 NW 9 13 5 7 1003.3 - 11.6
18/06:30am 12.5 11.6 11.2 92 0.7 NW 7 11 4 6 1002.7 - 10.4
18/06:00am 11.6 10.1 10.4 92 0.6 W 9 13 5 7 1002.7 1002.7 10.2
18/05:56am 11.7 10.2 10.5 92 0.6 W 9 13 5 7 1002.6 - 10.2
18/05:30am 12.0 9.8 10.7 92 0.7 NNW 13 15 7 8 1001.9 - 10.2
18/05:00am 12.0 10.2 10.7 92 0.7 N 11 13 6 7 1001.5 1001.5 10.2
18/04:49am 11.9 9.6 10.6 92 0.7 N 13 17 7 9 1001.3 - 10.2
18/04:30am 12.0 9.0 10.7 92 0.7 NNW 17 20 9 11 1001.0 - 10.0
18/04:00am 11.9 8.3 10.7 92 0.6 NNW 20 26 11 14 1000.5 1000.5 10.0
18/03:30am 11.7 7.3 10.3 91 0.7 NW 24 32 13 17 1000.4 - 10.0
18/03:00am 11.6 7.1 10.2 91 0.7 NNW 24 28 13 15 1000.7 1000.7 10.0
18/02:30am 11.6 6.8 10.2 91 0.7 NW 26 32 14 17 1001.4 - 10.0
18/02:00am 11.9 7.9 10.4 90 0.8 WNW 22 28 12 15 1001.9 1001.9 10.0
18/01:30am 12.4 7.4 9.5 82 1.5 WNW 26 32 14 17 1002.2 - 10.0
18/01:00am 12.6 6.8 9.3 80 1.7 WNW 30 33 16 18 1002.5 1002.5 10.0
18/12:30am 12.8 7.6 9.0 78 1.9 WNW 26 33 14 18 1002.8 - 10.0
18/12:00am 12.8 8.8 8.4 74 2.2 WNW 19 30 10 16 1003.0 1003.0 10.0
 
Date/Time
EST
Temp
°C
App
Temp
°C
Dew
Point
Rel
Hum
%
Delta-T
°C
Wind Press
QNH
hPa
Press
MSL
hPa
Rain
since 9 am
mm
Dir
 
Spd
km/h
Gust
km/h
Spd
kts
Gust
kts
17/11:30pm 12.8 9.2 8.4 74 2.2 NW 17 22 9 12 1003.3 - 10.0
17/11:00pm 12.6 8.3 7.9 73 2.3 WNW 20 26 11 14 1003.6 1003.6 10.0
17/10:30pm 12.8 8.6 8.2 73 2.3 WNW 20 28 11 15 1004.0 - 10.0

Other Formats:

Comma delimited format used in spreadsheet applications
http://www.bom.gov.au/fwo/IDN60801/IDN60801.94767.axf

JavaScript Object Notation format (JSON) in row-major order
http://www.bom.gov.au/fwo/IDN60801/IDN60801.94767.json